Latest Weather Observations for Barrow Island

IDW60801

Issued at 6:35 pm WST Friday 28 November 2014 (issued every 30 minutes, with the page automatically refreshed every 10 minutes)

About weather observations | Map of weather stations | Latest weather observations for WA | Other Formats
Station Details ID: 005094 Name: BARROW ISLAND AIRPORT Lat: -20.88 Lon: 115.41 Height: 6.4 m
Data from the previous 72 hours. | See also: Recent months at Barrow Island
Date/Time
WST
Temp
°C
App
Temp
°C
Dew
Point
Rel
Hum
%
Delta-T
°C
Wind Press
QNH
hPa
Press
MSL
hPa
Rain
since 9 am
mm
Dir
 
Spd
km/h
Gust
km/h
Spd
kts
Gust
kts
28/06:30pm 25.8 24.1 19.9 70 3.8 W 28 35 15 19 1009.5 - 0.0
28/06:00pm 26.4 23.8 19.8 67 4.3 W 33 39 18 21 1009.3 1009.3 0.0
28/05:30pm 27.0 24.3 19.6 64 4.8 WSW 33 39 18 21 1008.9 - 0.0
28/05:00pm 27.4 24.8 20.0 64 4.8 WSW 33 39 18 21 1009.0 - 0.0
28/04:30pm 28.3 25.5 19.0 57 6.0 WSW 32 39 17 21 1008.9 - 0.0
28/04:00pm 28.5 25.7 19.1 56 6.1 WSW 32 39 17 21 1008.8 - 0.0
28/03:30pm 29.1 25.8 17.0 48 7.6 WSW 30 35 16 19 1009.0 - 0.0
28/03:00pm 29.3 27.0 18.4 51 7.0 WSW 28 33 15 18 1009.2 1009.2 0.0
28/02:30pm 28.6 26.3 17.5 51 7.0 WSW 26 32 14 17 1009.4 - 0.0
28/02:00pm 28.1 26.3 18.8 57 6.0 SW 26 32 14 17 1009.9 - 0.0
28/01:30pm 27.6 25.1 18.9 59 5.6 SW 30 33 16 18 1010.2 - 0.0
28/01:00pm 27.5 25.3 18.8 59 5.6 SW 28 35 15 19 1010.6 - 0.0
28/12:30pm 27.9 25.9 19.1 58 5.7 SW 28 33 15 18 1010.8 - 0.0
28/12:00pm 27.4 24.9 18.1 57 5.9 SSW 28 35 15 19 1011.1 1011.1 0.0
28/11:30am 27.2 24.3 18.8 60 5.4 SSW 32 37 17 20 1011.1 - 0.0
28/11:00am 26.8 24.3 18.9 62 5.1 SSW 30 35 16 19 1011.4 - 0.0
28/10:30am 26.3 23.7 18.7 63 4.9 SSW 30 37 16 20 1011.7 - 0.0
28/10:00am 26.0 22.9 18.4 63 4.8 S 32 39 17 21 1012.0 - 0.0
28/09:30am 25.6 22.5 18.8 66 4.3 SSW 33 39 18 21 1011.9 - 0.0
28/09:00am 25.2 21.8 18.2 65 4.4 S 33 43 18 23 1012.1 1012.1 0.0
28/08:30am 25.1 21.5 18.5 67 4.2 S 35 41 19 22 1012.2 - 0.0
28/08:00am 24.6 20.8 18.1 67 4.1 SSW 35 41 19 22 1012.1 - 0.0
28/07:30am 24.5 21.0 18.7 70 3.7 S 35 41 19 22 1011.9 - 0.0
28/07:00am 23.9 20.2 18.3 71 3.5 S 35 41 19 22 1011.8 - 0.0
28/06:30am 23.8 20.6 18.7 73 3.2 S 33 43 18 23 1011.7 - 0.0
28/06:00am 23.7 20.6 18.8 74 3.1 S 33 37 18 20 1011.2 1011.2 0.0
28/05:30am 23.4 20.2 18.5 74 3.1 S 33 39 18 21 1011.1 - 0.0
28/05:00am 23.9 21.3 19.4 76 2.9 S 32 35 17 19 1011.1 - 0.0
28/04:30am 23.7 21.2 18.8 74 3.1 S 30 35 16 19 1010.7 - 0.0
28/04:00am 23.9 21.0 18.8 73 3.2 S 32 39 17 21 1010.6 - 0.0
28/03:30am 24.1 21.4 19.2 74 3.1 S 32 39 17 21 1010.3 - 0.0
28/03:00am 24.3 22.3 20.0 77 2.8 SSW 30 35 16 19 1010.3 1010.3 0.0
28/02:30am 24.2 22.0 19.5 75 3.0 SSW 30 33 16 18 1010.4 - 0.0
28/02:00am 24.4 22.1 20.1 77 2.8 SSW 32 35 17 19 1010.3 - 0.0
28/01:30am 24.4 22.4 19.9 76 2.9 SSW 30 35 16 19 1010.3 - 0.0
28/01:00am 24.3 22.2 19.8 76 2.9 SW 30 35 16 19 1010.5 - 0.0
28/12:30am 24.3 22.2 19.8 76 2.9 SW 30 33 16 18 1010.7 - 0.0
28/12:00am 24.3 22.5 19.6 75 3.0 SW 28 33 15 18 1010.9 1010.9 0.0
 
Date/Time
WST
Temp
°C
App
Temp
°C
Dew
Point
Rel
Hum
%
Delta-T
°C
Wind Press
QNH
hPa
Press
MSL
hPa
Rain
since 9 am
mm
Dir
 
Spd
km/h
Gust
km/h
Spd
kts
Gust
kts
27/11:30pm 24.3 23.5 20.0 77 2.8 SW 24 32 13 17 1011.2 - 0.0
27/11:00pm 24.2 22.8 19.7 76 2.9 SW 26 32 14 17 1011.4 - 0.0
27/10:30pm 23.9 22.4 19.4 76 2.9 SW 26 32 14 17 1011.3 - 0.0
27/10:00pm 24.1 22.7 19.6 76 2.9 SW 26 32 14 17 1011.4 - 0.0
27/09:30pm 24.2 22.6 19.3 74 3.1 WSW 26 33 14 18 1011.3 - 0.0
27/09:00pm 24.3 22.7 19.1 73 3.3 WSW 26 30 14 16 1011.4 1011.4 0.0
27/08:30pm 24.4 22.9 19.5 74 3.1 WSW 26 32 14 17 1011.1 - 0.0
27/08:00pm 24.5 22.9 19.3 73 3.3 WSW 26 33 14 18 1011.0 - 0.0
27/07:30pm 24.6 23.1 19.4 73 3.3 WSW 26 32 14 17 1010.8 - 0.0
27/07:00pm 25.1 23.8 19.9 73 3.4 WSW 26 32 14 17 1010.5 - 0.0
27/06:30pm 25.6 24.2 19.7 70 3.8 WSW 26 32 14 17 1010.2 - 0.0
27/06:00pm 26.5 24.6 20.1 68 4.2 W 30 35 16 19 1009.7 1009.7 0.0
27/05:30pm 27.2 25.7 19.5 62 5.0 W 26 33 14 18 1009.6 - 0.0
27/05:00pm 27.9 26.4 20.2 63 5.0 WSW 28 35 15 19 1009.4 - 0.0
27/04:30pm 28.7 28.2 20.7 62 5.3 WSW 24 30 13 16 1009.2 - 0.0
27/04:00pm 28.9 28.1 20.9 62 5.3 WSW 26 33 14 18 1009.0 - 0.0
27/03:30pm 29.4 29.2 20.5 58 5.9 WSW 22 26 12 14 1009.2 - 0.0
27/03:00pm 29.7 30.4 20.5 57 6.1 SW 17 22 9 12 1009.4 1009.4 0.0
27/02:30pm 29.7 30.4 19.7 55 6.5 SW 15 20 8 11 1009.5 - 0.0
27/02:00pm 30.3 30.2 19.9 53 6.8 SW 20 26 11 14 1009.5 - 0.0
27/01:30pm 30.3 30.5 20.2 54 6.7 SW 19 24 10 13 1009.6 - 0.0
27/01:00pm 29.4 30.5 20.5 58 5.9 SSW 15 19 8 10 1009.9 - 0.0
27/12:30pm 29.1 30.4 20.8 61 5.5 SSW 15 17 8 9 1010.0 - 0.0
27/12:00pm 29.8 31.9 20.1 56 6.4 SSW 9 13 5 7 1010.4 1010.4 0.0
27/11:30am 29.2 30.3 21.2 62 5.3 SSW 17 20 9 11 1010.2 - 0.0
27/11:00am 28.9 30.2 21.7 65 4.8 SSW 17 20 9 11 1010.2 - 0.0
27/10:30am 28.2 29.2 20.2 62 5.2 S 15 17 8 9 1010.4 - 0.0
27/10:00am 28.1 30.0 20.6 63 4.9 S 11 13 6 7 1010.7 - 0.0
27/09:30am 27.6 29.6 20.7 66 4.6 S 11 13 6 7 1010.9 - 0.0
27/09:00am 27.2 28.4 19.8 64 4.8 S 13 17 7 9 1011.1 1011.1 0.0
27/08:30am 27.1 28.2 20.4 66 4.4 SSW 15 19 8 10 1010.8 - 0.0
27/08:00am 26.4 26.9 20.0 68 4.2 SSW 17 19 9 10 1010.6 - 0.0
27/07:30am 25.6 26.0 19.9 70 3.7 SSW 17 20 9 11 1010.6 - 0.0
27/07:00am 25.3 25.3 19.7 71 3.6 S 19 22 10 12 1010.5 - 0.0
27/06:30am 24.7 24.0 19.5 73 3.3 S 22 26 12 14 1010.1 - 0.0
27/06:00am 24.2 23.1 19.5 75 3.0 S 24 28 13 15 1009.9 1009.9 0.0
27/05:30am 24.2 22.5 19.7 76 2.9 S 28 32 15 17 1009.7 - 0.0
27/05:00am 24.4 22.7 19.9 76 2.9 S 28 33 15 18 1009.4 - 0.0
27/04:30am 24.3 22.6 19.8 76 2.9 S 28 33 15 18 1009.3 - 0.0
27/04:00am 24.5 22.7 20.4 78 2.7 S 30 37 16 20 1009.3 - 0.0
27/03:30am 24.7 22.9 20.4 77 2.8 S 30 37 16 20 1009.3 - 0.0
27/03:00am 24.8 22.9 20.9 79 2.6 SSW 32 39 17 21 1009.1 1009.1 0.0
27/02:30am 24.5 22.8 20.6 79 2.5 SSW 30 37 16 20 1009.2 - 0.0
27/02:00am 24.5 21.4 20.4 78 2.7 SSW 37 44 20 24 1009.1 - 0.0
27/01:30am 24.6 22.0 20.7 79 2.6 SSW 35 43 19 23 1009.2 - 0.0
27/01:00am 24.7 22.6 20.6 78 2.7 SW 32 35 17 19 1009.4 - 0.0
27/12:30am 24.6 23.0 20.7 79 2.6 SW 30 37 16 20 1009.3 - 0.0
27/12:00am 24.5 22.4 20.6 79 2.5 SW 32 37 17 20 1009.4 1009.4 0.0
 
Date/Time
WST
Temp
°C
App
Temp
°C
Dew
Point
Rel
Hum
%
Delta-T
°C
Wind Press
QNH
hPa
Press
MSL
hPa
Rain
since 9 am
mm
Dir
 
Spd
km/h
Gust
km/h
Spd
kts
Gust
kts
26/11:30pm 24.5 23.3 20.8 80 2.4 SW 28 37 15 20 1009.5 - 0.0
26/11:00pm 24.7 24.1 21.2 81 2.3 SW 26 32 14 17 1009.6 - 0.0
26/10:30pm 24.5 23.7 20.8 80 2.4 WSW 26 33 14 18 1009.5 - 0.0
26/10:00pm 24.5 24.0 20.8 80 2.4 WSW 24 32 13 17 1009.4 - 0.0
26/09:30pm 24.7 24.3 21.0 80 2.4 WSW 24 28 13 15 1009.1 - 0.0
26/09:00pm 24.8 24.4 20.9 79 2.6 WSW 24 28 13 15 1009.2 1009.2 0.0
26/08:30pm 25.0 25.0 20.9 78 2.7 WSW 22 28 12 15 1009.0 - 0.0
26/08:00pm 25.2 25.2 20.9 77 2.8 WSW 22 28 12 15 1008.6 - 0.0
26/07:30pm 25.4 25.6 20.6 75 3.1 W 20 28 11 15 1008.4 - 0.0
26/07:00pm 25.5 25.2 20.3 73 3.4 W 22 28 12 15 1008.2 - 0.0
26/06:30pm 26.2 25.6 20.5 71 3.7 W 24 28 13 15 1007.9 - 0.0
26/06:00pm 26.7 25.9 20.1 67 4.3 W 24 28 13 15 1007.6 1007.6 0.0
26/05:30pm 27.7 27.0 20.3 64 4.9 W 24 30 13 16 1007.5 - 0.0
26/05:00pm 28.3 27.9 20.1 61 5.4 WSW 22 28 12 15 1007.5 - 0.0
26/04:30pm 28.7 27.3 19.6 58 5.9 WSW 26 33 14 18 1007.4 - 0.0
26/04:00pm 29.5 28.0 19.5 55 6.5 WSW 26 32 14 17 1007.5 - 0.0
26/03:30pm 29.8 28.7 19.5 54 6.7 W 24 33 13 18 1007.6 - 0.0
26/03:00pm 30.1 29.5 19.8 54 6.8 W 22 32 12 17 1007.8 1007.8 0.0
26/02:30pm 30.5 29.7 19.2 51 7.4 W 22 37 12 20 1007.9 - 0.0
26/02:00pm 28.3 27.7 21.3 65 4.7 SSW 26 32 14 17 1008.2 - 0.0
26/01:30pm 28.9 29.7 21.7 65 4.8 S 20 26 11 14 1008.4 - 0.0
26/01:00pm 30.5 31.9 21.8 59 5.9 S 17 20 9 11 1008.6 - 0.0
26/12:30pm 30.0 32.2 21.9 62 5.5 E 13 24 7 13 1009.0 - 0.0
26/12:00pm 29.1 29.1 21.6 64 5.0 ENE 24 28 13 15 1009.1 1009.1 0.0
26/11:30am 29.3 29.5 21.3 62 5.3 ENE 22 26 12 14 1009.3 - 0.0
26/11:00am 29.0 29.0 21.0 62 5.3 ENE 22 28 12 15 1009.5 - 0.0
26/10:30am 28.8 30.4 20.8 62 5.3 ENE 13 17 7 9 1009.9 - 0.0
26/10:00am 28.6 30.0 20.3 60 5.5 ENE 13 17 7 9 1010.1 - 0.0
26/09:30am 28.7 30.5 20.4 60 5.5 ENE 11 19 6 10 1010.3 - 0.0
26/09:00am 28.0 30.5 21.8 69 4.2 S 11 20 6 11 1010.6 1010.6 0.0
26/08:30am 27.2 29.4 21.9 73 3.6 S 13 15 7 8 1010.6 - 0.0
26/08:00am 26.7 29.5 21.5 73 3.5 S 9 13 5 7 1010.5 - 0.0
26/07:30am 26.2 28.4 21.2 74 3.3 SSW 11 13 6 7 1010.3 - 0.0
26/07:00am 25.4 27.6 21.1 77 2.8 SW 11 15 6 8 1010.2 - 0.0
26/06:30am 25.0 26.7 20.9 78 2.7 WSW 13 17 7 9 1009.9 - 0.0
26/06:00am 24.5 26.6 21.0 81 2.3 SSW 11 15 6 8 1010.1 1010.1 0.0
26/05:30am 24.2 25.8 20.7 81 2.3 S 13 17 7 9 1010.0 - 0.0
26/05:00am 24.3 24.6 20.8 81 2.3 S 20 26 11 14 1009.9 - 0.0
26/04:30am 24.4 24.0 20.9 81 2.3 S 24 28 13 15 1009.3 - 0.0
26/04:00am 24.4 24.2 21.3 83 2.0 SSW 24 30 13 16 1008.7 - 0.0
26/03:30am 24.1 23.4 21.0 83 2.0 SSW 26 30 14 16 1008.2 - 0.0
26/03:00am 24.2 23.6 21.3 84 1.9 SW 26 30 14 16 1008.3 1008.3 0.0
26/02:30am 24.2 24.6 21.7 86 1.7 SW 22 28 12 15 1008.2 - 0.0
26/02:00am 24.1 24.0 21.4 85 1.8 WSW 24 30 13 16 1008.1 - 0.0
26/01:30am 24.0 22.6 21.1 84 1.9 WSW 30 33 16 18 1008.1 - 0.0
26/01:00am 23.9 22.8 21.0 84 1.9 W 28 35 15 19 1008.2 - 0.0
26/12:30am 23.9 22.9 21.2 85 1.8 W 28 33 15 18 1008.4 - 0.0
26/12:00am 24.0 23.1 21.5 86 1.7 W 28 35 15 19 1008.8 1008.8 0.0
 
Date/Time
WST
Temp
°C
App
Temp
°C
Dew
Point
Rel
Hum
%
Delta-T
°C
Wind Press
QNH
hPa
Press
MSL
hPa
Rain
since 9 am
mm
Dir
 
Spd
km/h
Gust
km/h
Spd
kts
Gust
kts
25/11:30pm 24.1 23.6 21.4 85 1.8 W 26 32 14 17 1008.9 - 0.0
25/11:00pm 24.2 24.1 21.5 85 1.8 WSW 24 32 13 17 1009.1 - 0.0
25/10:30pm 24.3 23.4 21.4 84 1.9 W 28 37 15 20 1009.2 - 0.0
25/10:00pm 24.4 22.7 21.3 83 2.0 W 32 37 17 20 1008.9 - 0.0
25/09:30pm 24.3 24.4 21.2 83 2.0 W 22 30 12 16 1008.8 - 0.0
25/09:00pm 24.3 23.7 21.2 83 2.0 W 26 32 14 17 1008.5 1008.5 0.0
25/08:30pm 24.7 23.4 21.4 82 2.2 W 30 35 16 19 1008.5 - 0.0
25/08:00pm 24.7 23.8 21.4 82 2.2 W 28 35 15 19 1008.2 - 0.0
25/07:30pm 24.9 24.0 21.4 81 2.3 W 28 33 15 18 1008.0 - 0.0
25/07:00pm 25.2 24.6 21.3 79 2.6 W 26 33 14 18 1007.8 - 0.0

Other Formats:

Comma delimited format used in spreadsheet applications
http://www.bom.gov.au/fwo/IDW60801/IDW60801.95304.axf

JavaScript Object Notation format (JSON) in row-major order
http://www.bom.gov.au/fwo/IDW60801/IDW60801.95304.json